sensor_id;sensor_type;location;lat;lon;timestamp;P1;durP1;ratioP1;P2;durP2;ratioP2
19219;SDS011;9744;49.364;7.484;2023-06-26T00:01:58;8.05;;;5.68;;
19219;SDS011;9744;49.364;7.484;2023-06-26T00:04:25;6.43;;;5.47;;
19219;SDS011;9744;49.364;7.484;2023-06-26T00:06:53;10.15;;;5.20;;
19219;SDS011;9744;49.364;7.484;2023-06-26T00:09:21;7.10;;;5.32;;
19219;SDS011;9744;49.364;7.484;2023-06-26T00:11:48;8.75;;;5.22;;
19219;SDS011;9744;49.364;7.484;2023-06-26T00:14:17;6.90;;;5.50;;
19219;SDS011;9744;49.364;7.484;2023-06-26T00:16:46;7.15;;;5.60;;
19219;SDS011;9744;49.364;7.484;2023-06-26T00:19:16;8.05;;;5.15;;
19219;SDS011;9744;49.364;7.484;2023-06-26T00:21:43;7.68;;;5.35;;
19219;SDS011;9744;49.364;7.484;2023-06-26T00:24:13;6.82;;;5.60;;
19219;SDS011;9744;49.364;7.484;2023-06-26T00:26:40;5.93;;;4.97;;
19219;SDS011;9744;49.364;7.484;2023-06-26T00:29:07;8.45;;;5.25;;
19219;SDS011;9744;49.364;7.484;2023-06-26T00:31:35;6.90;;;4.93;;
19219;SDS011;9744;49.364;7.484;2023-06-26T00:34:06;7.15;;;5.47;;
19219;SDS011;9744;49.364;7.484;2023-06-26T00:36:35;7.47;;;5.97;;
19219;SDS011;9744;49.364;7.484;2023-06-26T00:39:03;9.90;;;5.15;;
19219;SDS011;9744;49.364;7.484;2023-06-26T00:41:30;5.70;;;5.05;;
19219;SDS011;9744;49.364;7.484;2023-06-26T00:43:58;7.03;;;5.88;;
19219;SDS011;9744;49.364;7.484;2023-06-26T00:46:26;8.32;;;5.15;;
19219;SDS011;9744;49.364;7.484;2023-06-26T00:48:53;5.57;;;5.03;;
19219;SDS011;9744;49.364;7.484;2023-06-26T00:51:21;6.88;;;5.05;;
19219;SDS011;9744;49.364;7.484;2023-06-26T00:53:51;6.15;;;4.93;;
19219;SDS011;9744;49.364;7.484;2023-06-26T00:56:18;5.63;;;5.03;;
19219;SDS011;9744;49.364;7.484;2023-06-26T00:58:46;6.97;;;5.13;;
19219;SDS011;9744;49.364;7.484;2023-06-26T01:01:14;10.70;;;5.53;;
19219;SDS011;9744;49.364;7.484;2023-06-26T01:03:43;6.22;;;4.95;;
19219;SDS011;9744;49.364;7.484;2023-06-26T01:06:11;10.02;;;5.20;;
19219;SDS011;9744;49.364;7.484;2023-06-26T01:08:41;6.78;;;5.45;;
19219;SDS011;9744;49.364;7.484;2023-06-26T01:11:14;7.53;;;5.55;;
19219;SDS011;9744;49.364;7.484;2023-06-26T01:13:42;8.43;;;5.63;;
19219;SDS011;9744;49.364;7.484;2023-06-26T01:16:10;7.20;;;5.60;;
19219;SDS011;9744;49.364;7.484;2023-06-26T01:18:39;6.25;;;5.10;;
19219;SDS011;9744;49.364;7.484;2023-06-26T01:21:08;6.78;;;5.75;;
19219;SDS011;9744;49.364;7.484;2023-06-26T01:23:39;7.07;;;5.20;;
19219;SDS011;9744;49.364;7.484;2023-06-26T01:26:27;6.07;;;4.93;;
19219;SDS011;9744;49.364;7.484;2023-06-26T01:28:56;8.18;;;5.50;;
19219;SDS011;9744;49.364;7.484;2023-06-26T01:31:26;6.38;;;5.75;;
19219;SDS011;9744;49.364;7.484;2023-06-26T01:33:56;7.55;;;5.30;;
19219;SDS011;9744;49.364;7.484;2023-06-26T01:36:26;6.68;;;5.50;;
19219;SDS011;9744;49.364;7.484;2023-06-26T01:38:53;8.88;;;5.50;;
19219;SDS011;9744;49.364;7.484;2023-06-26T01:41:23;6.53;;;5.47;;
19219;SDS011;9744;49.364;7.484;2023-06-26T01:44:03;7.43;;;5.78;;
19219;SDS011;9744;49.364;7.484;2023-06-26T01:46:43;6.78;;;5.82;;
19219;SDS011;9744;49.364;7.484;2023-06-26T01:49:21;7.22;;;5.53;;
19219;SDS011;9744;49.364;7.484;2023-06-26T01:51:58;8.70;;;5.40;;
19219;SDS011;9744;49.364;7.484;2023-06-26T01:54:35;8.30;;;5.53;;
19219;SDS011;9744;49.364;7.484;2023-06-26T01:57:09;6.63;;;5.68;;
19219;SDS011;9744;49.364;7.484;2023-06-26T01:59:40;6.40;;;4.85;;
19219;SDS011;9744;49.364;7.484;2023-06-26T02:02:09;7.47;;;6.18;;
19219;SDS011;9744;49.364;7.484;2023-06-26T02:04:36;6.03;;;5.20;;
19219;SDS011;9744;49.364;7.484;2023-06-26T02:07:05;7.38;;;4.97;;
19219;SDS011;9744;49.364;7.484;2023-06-26T02:09:34;8.07;;;5.20;;
19219;SDS011;9744;49.364;7.484;2023-06-26T02:12:04;6.80;;;5.07;;
19219;SDS011;9744;49.364;7.484;2023-06-26T02:14:31;8.55;;;5.70;;
19219;SDS011;9744;49.364;7.484;2023-06-26T02:17:01;8.82;;;5.72;;
19219;SDS011;9744;49.364;7.484;2023-06-26T02:19:29;6.75;;;5.55;;
19219;SDS011;9744;49.364;7.484;2023-06-26T02:21:57;7.22;;;5.65;;
19219;SDS011;9744;49.364;7.484;2023-06-26T02:24:25;6.20;;;5.22;;
19219;SDS011;9744;49.364;7.484;2023-06-26T02:26:57;6.93;;;5.15;;
19219;SDS011;9744;49.364;7.484;2023-06-26T02:29:24;7.15;;;5.82;;
19219;SDS011;9744;49.364;7.484;2023-06-26T02:31:51;6.80;;;5.43;;
19219;SDS011;9744;49.364;7.484;2023-06-26T02:34:20;8.80;;;5.90;;
19219;SDS011;9744;49.364;7.484;2023-06-26T02:36:47;6.50;;;5.35;;
19219;SDS011;9744;49.364;7.484;2023-06-26T02:39:15;6.78;;;5.57;;
19219;SDS011;9744;49.364;7.484;2023-06-26T02:41:44;8.18;;;5.40;;
19219;SDS011;9744;49.364;7.484;2023-06-26T02:44:11;7.47;;;5.93;;
19219;SDS011;9744;49.364;7.484;2023-06-26T02:46:39;6.97;;;5.63;;
19219;SDS011;9744;49.364;7.484;2023-06-26T02:49:07;7.95;;;6.15;;
19219;SDS011;9744;49.364;7.484;2023-06-26T02:51:36;8.77;;;5.60;;
19219;SDS011;9744;49.364;7.484;2023-06-26T02:54:10;6.70;;;5.72;;
19219;SDS011;9744;49.364;7.484;2023-06-26T02:56:39;7.75;;;6.28;;
19219;SDS011;9744;49.364;7.484;2023-06-26T02:59:06;8.23;;;5.97;;
19219;SDS011;9744;49.364;7.484;2023-06-26T03:01:33;6.80;;;5.75;;
19219;SDS011;9744;49.364;7.484;2023-06-26T03:04:01;7.80;;;5.80;;
19219;SDS011;9744;49.364;7.484;2023-06-26T03:06:29;7.47;;;5.97;;
19219;SDS011;9744;49.364;7.484;2023-06-26T03:09:01;8.15;;;6.07;;
19219;SDS011;9744;49.364;7.484;2023-06-26T03:11:31;9.55;;;6.00;;
19219;SDS011;9744;49.364;7.484;2023-06-26T03:13:58;8.82;;;5.97;;
19219;SDS011;9744;49.364;7.484;2023-06-26T03:16:26;7.47;;;5.72;;
19219;SDS011;9744;49.364;7.484;2023-06-26T03:18:53;7.50;;;6.43;;
19219;SDS011;9744;49.364;7.484;2023-06-26T03:21:21;9.80;;;6.20;;
19219;SDS011;9744;49.364;7.484;2023-06-26T03:23:48;8.75;;;6.28;;
19219;SDS011;9744;49.364;7.484;2023-06-26T03:26:17;7.40;;;6.10;;
19219;SDS011;9744;49.364;7.484;2023-06-26T03:28:47;8.90;;;6.15;;
19219;SDS011;9744;49.364;7.484;2023-06-26T03:31:15;8.60;;;6.45;;
19219;SDS011;9744;49.364;7.484;2023-06-26T03:33:43;6.60;;;5.82;;
19219;SDS011;9744;49.364;7.484;2023-06-26T03:36:10;7.75;;;5.57;;
19219;SDS011;9744;49.364;7.484;2023-06-26T03:38:37;8.00;;;5.95;;
19219;SDS011;9744;49.364;7.484;2023-06-26T03:41:05;6.65;;;5.93;;
19219;SDS011;9744;49.364;7.484;2023-06-26T03:43:34;7.78;;;6.03;;
19219;SDS011;9744;49.364;7.484;2023-06-26T03:46:18;7.75;;;6.03;;
19219;SDS011;9744;49.364;7.484;2023-06-26T03:48:46;6.18;;;5.40;;
19219;SDS011;9744;49.364;7.484;2023-06-26T03:51:13;7.68;;;6.15;;
19219;SDS011;9744;49.364;7.484;2023-06-26T03:53:41;7.53;;;5.47;;
19219;SDS011;9744;49.364;7.484;2023-06-26T03:56:08;7.78;;;5.97;;
19219;SDS011;9744;49.364;7.484;2023-06-26T03:58:37;9.02;;;6.13;;
19219;SDS011;9744;49.364;7.484;2023-06-26T04:01:04;9.13;;;5.95;;
19219;SDS011;9744;49.364;7.484;2023-06-26T04:03:31;8.15;;;5.97;;
19219;SDS011;9744;49.364;7.484;2023-06-26T04:06:01;8.15;;;5.97;;
19219;SDS011;9744;49.364;7.484;2023-06-26T04:08:29;6.80;;;5.65;;
19219;SDS011;9744;49.364;7.484;2023-06-26T04:10:56;7.90;;;5.50;;
19219;SDS011;9744;49.364;7.484;2023-06-26T04:13:24;8.88;;;5.93;;
19219;SDS011;9744;49.364;7.484;2023-06-26T04:15:53;7.50;;;5.60;;
19219;SDS011;9744;49.364;7.484;2023-06-26T04:18:20;8.50;;;6.38;;
19219;SDS011;9744;49.364;7.484;2023-06-26T04:21:07;10.23;;;6.32;;
19219;SDS011;9744;49.364;7.484;2023-06-26T04:23:35;7.15;;;5.70;;
19219;SDS011;9744;49.364;7.484;2023-06-26T04:26:02;7.75;;;6.18;;
19219;SDS011;9744;49.364;7.484;2023-06-26T04:28:30;9.10;;;5.90;;
19219;SDS011;9744;49.364;7.484;2023-06-26T04:30:59;7.97;;;5.60;;
19219;SDS011;9744;49.364;7.484;2023-06-26T04:33:26;8.23;;;6.18;;
19219;SDS011;9744;49.364;7.484;2023-06-26T04:36:00;8.10;;;5.85;;
19219;SDS011;9744;49.364;7.484;2023-06-26T04:38:29;7.93;;;6.15;;
19219;SDS011;9744;49.364;7.484;2023-06-26T04:40:56;6.70;;;5.95;;
19219;SDS011;9744;49.364;7.484;2023-06-26T04:43:24;8.77;;;5.68;;
19219;SDS011;9744;49.364;7.484;2023-06-26T04:45:51;8.48;;;5.50;;
19219;SDS011;9744;49.364;7.484;2023-06-26T04:48:20;8.05;;;5.85;;
19219;SDS011;9744;49.364;7.484;2023-06-26T04:50:47;7.85;;;6.00;;
19219;SDS011;9744;49.364;7.484;2023-06-26T04:56:15;7.75;;;6.07;;
19219;SDS011;9744;49.364;7.484;2023-06-26T04:58:49;8.27;;;6.32;;
19219;SDS011;9744;49.364;7.484;2023-06-26T05:01:16;7.53;;;6.20;;
19219;SDS011;9744;49.364;7.484;2023-06-26T05:03:48;10.65;;;6.63;;
19219;SDS011;9744;49.364;7.484;2023-06-26T05:06:16;8.10;;;5.68;;
19219;SDS011;9744;49.364;7.484;2023-06-26T05:08:44;8.57;;;6.57;;
19219;SDS011;9744;49.364;7.484;2023-06-26T05:11:11;10.93;;;6.40;;
19219;SDS011;9744;49.364;7.484;2023-06-26T05:13:43;11.18;;;6.75;;
19219;SDS011;9744;49.364;7.484;2023-06-26T05:16:12;7.22;;;6.30;;
19219;SDS011;9744;49.364;7.484;2023-06-26T05:18:40;12.27;;;6.80;;
19219;SDS011;9744;49.364;7.484;2023-06-26T05:21:10;9.98;;;6.75;;
19219;SDS011;9744;49.364;7.484;2023-06-26T05:23:38;9.85;;;7.13;;
19219;SDS011;9744;49.364;7.484;2023-06-26T05:26:06;11.45;;;6.78;;
19219;SDS011;9744;49.364;7.484;2023-06-26T05:28:35;8.40;;;6.63;;
19219;SDS011;9744;49.364;7.484;2023-06-26T05:31:03;10.45;;;6.43;;
19219;SDS011;9744;49.364;7.484;2023-06-26T05:33:30;10.27;;;6.80;;
19219;SDS011;9744;49.364;7.484;2023-06-26T05:36:01;9.73;;;7.15;;
19219;SDS011;9744;49.364;7.484;2023-06-26T05:41:25;8.60;;;6.72;;
19219;SDS011;9744;49.364;7.484;2023-06-26T05:43:53;9.45;;;7.10;;
19219;SDS011;9744;49.364;7.484;2023-06-26T05:46:24;8.73;;;6.90;;
19219;SDS011;9744;49.364;7.484;2023-06-26T05:48:52;10.88;;;6.68;;
19219;SDS011;9744;49.364;7.484;2023-06-26T05:51:19;10.07;;;7.22;;
19219;SDS011;9744;49.364;7.484;2023-06-26T05:53:47;10.95;;;6.70;;
19219;SDS011;9744;49.364;7.484;2023-06-26T05:56:18;9.10;;;6.85;;
19219;SDS011;9744;49.364;7.484;2023-06-26T05:58:45;8.60;;;6.78;;
19219;SDS011;9744;49.364;7.484;2023-06-26T06:01:13;10.07;;;7.18;;
19219;SDS011;9744;49.364;7.484;2023-06-26T06:03:41;10.63;;;7.15;;
19219;SDS011;9744;49.364;7.484;2023-06-26T06:06:08;9.07;;;7.03;;
19219;SDS011;9744;49.364;7.484;2023-06-26T06:08:35;10.25;;;6.85;;
19219;SDS011;9744;49.364;7.484;2023-06-26T06:11:02;9.45;;;6.25;;
19219;SDS011;9744;49.364;7.484;2023-06-26T06:13:31;8.48;;;6.50;;
19219;SDS011;9744;49.364;7.484;2023-06-26T06:15:59;8.48;;;6.97;;
19219;SDS011;9744;49.364;7.484;2023-06-26T06:18:27;11.48;;;7.00;;
19219;SDS011;9744;49.364;7.484;2023-06-26T06:20:54;8.90;;;6.82;;
19219;SDS011;9744;49.364;7.484;2023-06-26T06:23:21;8.93;;;6.43;;
19219;SDS011;9744;49.364;7.484;2023-06-26T06:25:49;12.50;;;7.30;;
19219;SDS011;9744;49.364;7.484;2023-06-26T06:28:16;9.45;;;7.22;;
19219;SDS011;9744;49.364;7.484;2023-06-26T06:30:45;11.98;;;6.82;;
19219;SDS011;9744;49.364;7.484;2023-06-26T06:33:13;7.97;;;6.50;;
19219;SDS011;9744;49.364;7.484;2023-06-26T06:35:40;10.10;;;6.15;;
19219;SDS011;9744;49.364;7.484;2023-06-26T06:38:08;8.35;;;6.07;;
19219;SDS011;9744;49.364;7.484;2023-06-26T06:40:35;10.32;;;6.75;;
19219;SDS011;9744;49.364;7.484;2023-06-26T06:43:02;10.88;;;6.57;;
19219;SDS011;9744;49.364;7.484;2023-06-26T06:45:37;10.07;;;6.70;;
19219;SDS011;9744;49.364;7.484;2023-06-26T06:48:06;8.65;;;6.70;;
19219;SDS011;9744;49.364;7.484;2023-06-26T06:50:33;8.23;;;6.38;;
19219;SDS011;9744;49.364;7.484;2023-06-26T06:53:01;10.75;;;6.95;;
19219;SDS011;9744;49.364;7.484;2023-06-26T06:55:37;12.73;;;6.93;;
19219;SDS011;9744;49.364;7.484;2023-06-26T06:58:04;9.30;;;6.68;;
19219;SDS011;9744;49.364;7.484;2023-06-26T07:00:31;10.60;;;7.00;;
19219;SDS011;9744;49.364;7.484;2023-06-26T07:02:59;10.55;;;7.40;;
19219;SDS011;9744;49.364;7.484;2023-06-26T07:05:28;11.10;;;7.50;;
19219;SDS011;9744;49.364;7.484;2023-06-26T07:07:55;9.40;;;6.47;;
19219;SDS011;9744;49.364;7.484;2023-06-26T07:10:23;9.85;;;7.40;;
19219;SDS011;9744;49.364;7.484;2023-06-26T07:12:50;11.50;;;7.20;;
19219;SDS011;9744;49.364;7.484;2023-06-26T07:15:17;9.60;;;6.60;;
19219;SDS011;9744;49.364;7.484;2023-06-26T07:17:45;9.07;;;6.38;;
19219;SDS011;9744;49.364;7.484;2023-06-26T07:20:12;11.45;;;7.13;;
19219;SDS011;9744;49.364;7.484;2023-06-26T07:22:42;11.60;;;7.30;;
19219;SDS011;9744;49.364;7.484;2023-06-26T07:25:11;11.77;;;7.65;;
19219;SDS011;9744;49.364;7.484;2023-06-26T07:27:39;12.70;;;6.97;;
19219;SDS011;9744;49.364;7.484;2023-06-26T07:30:08;8.75;;;7.00;;
19219;SDS011;9744;49.364;7.484;2023-06-26T07:32:36;17.23;;;6.90;;
19219;SDS011;9744;49.364;7.484;2023-06-26T07:35:04;16.27;;;7.85;;
19219;SDS011;9744;49.364;7.484;2023-06-26T07:37:32;11.23;;;7.18;;
19219;SDS011;9744;49.364;7.484;2023-06-26T07:40:01;13.02;;;7.15;;
19219;SDS011;9744;49.364;7.484;2023-06-26T07:42:29;12.73;;;7.35;;
19219;SDS011;9744;49.364;7.484;2023-06-26T07:44:56;16.30;;;7.35;;
19219;SDS011;9744;49.364;7.484;2023-06-26T07:47:23;15.82;;;7.35;;
19219;SDS011;9744;49.364;7.484;2023-06-26T07:49:51;15.23;;;7.28;;
19219;SDS011;9744;49.364;7.484;2023-06-26T07:52:19;10.55;;;7.20;;
19219;SDS011;9744;49.364;7.484;2023-06-26T07:54:46;15.27;;;7.65;;
19219;SDS011;9744;49.364;7.484;2023-06-26T07:57:15;11.50;;;6.72;;
19219;SDS011;9744;49.364;7.484;2023-06-26T07:59:42;12.50;;;7.07;;
19219;SDS011;9744;49.364;7.484;2023-06-26T08:02:10;11.52;;;6.72;;
19219;SDS011;9744;49.364;7.484;2023-06-26T08:04:38;10.50;;;6.72;;
19219;SDS011;9744;49.364;7.484;2023-06-26T08:07:06;10.20;;;6.45;;
19219;SDS011;9744;49.364;7.484;2023-06-26T08:09:33;14.45;;;6.25;;
19219;SDS011;9744;49.364;7.484;2023-06-26T08:12:01;12.77;;;6.70;;
19219;SDS011;9744;49.364;7.484;2023-06-26T08:14:42;8.35;;;6.43;;
19219;SDS011;9744;49.364;7.484;2023-06-26T08:17:09;9.20;;;6.00;;
19219;SDS011;9744;49.364;7.484;2023-06-26T08:19:37;11.20;;;6.40;;
19219;SDS011;9744;49.364;7.484;2023-06-26T08:22:07;8.70;;;6.10;;
19219;SDS011;9744;49.364;7.484;2023-06-26T08:24:35;9.43;;;6.55;;
19219;SDS011;9744;49.364;7.484;2023-06-26T08:27:06;7.63;;;5.35;;
19219;SDS011;9744;49.364;7.484;2023-06-26T08:29:36;7.18;;;5.30;;
19219;SDS011;9744;49.364;7.484;2023-06-26T08:32:04;9.32;;;5.93;;
19219;SDS011;9744;49.364;7.484;2023-06-26T08:34:32;8.90;;;5.50;;
19219;SDS011;9744;49.364;7.484;2023-06-26T08:37:00;8.27;;;5.70;;
19219;SDS011;9744;49.364;7.484;2023-06-26T08:39:27;8.02;;;5.60;;
19219;SDS011;9744;49.364;7.484;2023-06-26T08:41:55;8.43;;;5.03;;
19219;SDS011;9744;49.364;7.484;2023-06-26T08:44:23;8.82;;;5.05;;
19219;SDS011;9744;49.364;7.484;2023-06-26T08:49:37;9.38;;;4.75;;
19219;SDS011;9744;49.364;7.484;2023-06-26T08:52:14;7.45;;;4.13;;
19219;SDS011;9744;49.364;7.484;2023-06-26T08:54:52;7.63;;;4.82;;
19219;SDS011;9744;49.364;7.484;2023-06-26T08:57:27;8.02;;;4.80;;
19219;SDS011;9744;49.364;7.484;2023-06-26T08:59:57;6.18;;;4.63;;
19219;SDS011;9744;49.364;7.484;2023-06-26T09:02:29;7.05;;;4.72;;
19219;SDS011;9744;49.364;7.484;2023-06-26T09:05:03;7.10;;;5.05;;
19219;SDS011;9744;49.364;7.484;2023-06-26T09:07:34;11.32;;;4.65;;
19219;SDS011;9744;49.364;7.484;2023-06-26T09:10:02;6.18;;;4.22;;
19219;SDS011;9744;49.364;7.484;2023-06-26T09:12:29;9.23;;;3.80;;
19219;SDS011;9744;49.364;7.484;2023-06-26T09:14:59;4.72;;;3.95;;
19219;SDS011;9744;49.364;7.484;2023-06-26T09:17:33;9.20;;;3.90;;
19219;SDS011;9744;49.364;7.484;2023-06-26T09:20:05;4.18;;;3.45;;
19219;SDS011;9744;49.364;7.484;2023-06-26T09:22:36;3.70;;;3.30;;
19219;SDS011;9744;49.364;7.484;2023-06-26T09:25:05;4.05;;;3.15;;
19219;SDS011;9744;49.364;7.484;2023-06-26T09:27:34;5.55;;;2.90;;
19219;SDS011;9744;49.364;7.484;2023-06-26T09:30:02;4.55;;;3.38;;
19219;SDS011;9744;49.364;7.484;2023-06-26T09:32:31;4.07;;;3.25;;
19219;SDS011;9744;49.364;7.484;2023-06-26T09:35:02;8.40;;;3.15;;
19219;SDS011;9744;49.364;7.484;2023-06-26T09:37:30;5.03;;;3.60;;
19219;SDS011;9744;49.364;7.484;2023-06-26T09:39:57;6.72;;;3.63;;
19219;SDS011;9744;49.364;7.484;2023-06-26T09:42:25;9.40;;;3.60;;
19219;SDS011;9744;49.364;7.484;2023-06-26T09:44:52;7.07;;;3.42;;
19219;SDS011;9744;49.364;7.484;2023-06-26T09:47:20;4.70;;;3.15;;
19219;SDS011;9744;49.364;7.484;2023-06-26T09:49:49;4.22;;;3.35;;
19219;SDS011;9744;49.364;7.484;2023-06-26T09:52:18;4.43;;;3.20;;
19219;SDS011;9744;49.364;7.484;2023-06-26T09:54:46;8.48;;;3.50;;
19219;SDS011;9744;49.364;7.484;2023-06-26T09:57:14;6.30;;;3.30;;
19219;SDS011;9744;49.364;7.484;2023-06-26T09:59:43;5.93;;;3.70;;
19219;SDS011;9744;49.364;7.484;2023-06-26T10:02:11;4.47;;;3.28;;
19219;SDS011;9744;49.364;7.484;2023-06-26T10:04:39;7.35;;;3.50;;
19219;SDS011;9744;49.364;7.484;2023-06-26T10:07:08;8.25;;;3.25;;
19219;SDS011;9744;49.364;7.484;2023-06-26T10:09:40;7.43;;;3.28;;
19219;SDS011;9744;49.364;7.484;2023-06-26T10:12:11;8.60;;;4.03;;
19219;SDS011;9744;49.364;7.484;2023-06-26T10:14:44;6.93;;;3.35;;
19219;SDS011;9744;49.364;7.484;2023-06-26T10:17:18;3.72;;;2.70;;
19219;SDS011;9744;49.364;7.484;2023-06-26T10:19:47;5.13;;;2.72;;
19219;SDS011;9744;49.364;7.484;2023-06-26T10:22:18;4.10;;;3.20;;
19219;SDS011;9744;49.364;7.484;2023-06-26T10:24:48;6.60;;;3.28;;
19219;SDS011;9744;49.364;7.484;2023-06-26T10:27:18;6.90;;;3.35;;
19219;SDS011;9744;49.364;7.484;2023-06-26T10:29:48;8.57;;;3.03;;
19219;SDS011;9744;49.364;7.484;2023-06-26T10:32:19;4.47;;;3.10;;
19219;SDS011;9744;49.364;7.484;2023-06-26T10:34:48;8.07;;;2.85;;
19219;SDS011;9744;49.364;7.484;2023-06-26T10:37:16;7.07;;;3.15;;
19219;SDS011;9744;49.364;7.484;2023-06-26T10:39:48;6.97;;;3.58;;
19219;SDS011;9744;49.364;7.484;2023-06-26T10:42:16;5.43;;;3.17;;
19219;SDS011;9744;49.364;7.484;2023-06-26T10:44:46;6.18;;;3.40;;
19219;SDS011;9744;49.364;7.484;2023-06-26T10:50:18;9.23;;;3.60;;
19219;SDS011;9744;49.364;7.484;2023-06-26T10:53:06;7.75;;;3.58;;
19219;SDS011;9744;49.364;7.484;2023-06-26T10:55:51;3.95;;;2.80;;
19219;SDS011;9744;49.364;7.484;2023-06-26T10:58:34;5.65;;;3.95;;
19219;SDS011;9744;49.364;7.484;2023-06-26T11:01:22;6.63;;;3.63;;
19219;SDS011;9744;49.364;7.484;2023-06-26T11:04:01;6.65;;;3.30;;
19219;SDS011;9744;49.364;7.484;2023-06-26T11:06:40;6.10;;;4.07;;
19219;SDS011;9744;49.364;7.484;2023-06-26T11:09:25;7.90;;;3.92;;
19219;SDS011;9744;49.364;7.484;2023-06-26T11:11:57;6.82;;;4.30;;
19219;SDS011;9744;49.364;7.484;2023-06-26T11:14:30;5.90;;;4.28;;
19219;SDS011;9744;49.364;7.484;2023-06-26T11:17:10;5.25;;;3.75;;
19219;SDS011;9744;49.364;7.484;2023-06-26T11:19:40;6.45;;;4.93;;
19219;SDS011;9744;49.364;7.484;2023-06-26T11:22:10;9.73;;;4.30;;
19219;SDS011;9744;49.364;7.484;2023-06-26T11:24:42;8.68;;;4.20;;
19219;SDS011;9744;49.364;7.484;2023-06-26T11:27:11;8.10;;;3.15;;
19219;SDS011;9744;49.364;7.484;2023-06-26T11:29:38;8.48;;;3.72;;
19219;SDS011;9744;49.364;7.484;2023-06-26T11:35:01;6.28;;;3.30;;
19219;SDS011;9744;49.364;7.484;2023-06-26T11:37:30;9.55;;;3.05;;
19219;SDS011;9744;49.364;7.484;2023-06-26T11:39:59;3.40;;;2.60;;
19219;SDS011;9744;49.364;7.484;2023-06-26T11:42:43;6.80;;;2.47;;
19219;SDS011;9744;49.364;7.484;2023-06-26T11:45:12;9.30;;;2.70;;
19219;SDS011;9744;49.364;7.484;2023-06-26T11:47:43;6.97;;;2.40;;
19219;SDS011;9744;49.364;7.484;2023-06-26T11:50:14;6.00;;;2.15;;
19219;SDS011;9744;49.364;7.484;2023-06-26T11:52:42;6.75;;;2.08;;
19219;SDS011;9744;49.364;7.484;2023-06-26T11:55:12;5.65;;;2.08;;
19219;SDS011;9744;49.364;7.484;2023-06-26T11:57:47;3.85;;;1.63;;
19219;SDS011;9744;49.364;7.484;2023-06-26T12:00:16;9.23;;;1.73;;
19219;SDS011;9744;49.364;7.484;2023-06-26T12:02:44;8.35;;;1.67;;
19219;SDS011;9744;49.364;7.484;2023-06-26T12:05:12;3.53;;;1.58;;
19219;SDS011;9744;49.364;7.484;2023-06-26T12:07:45;4.80;;;1.70;;
19219;SDS011;9744;49.364;7.484;2023-06-26T12:10:15;3.47;;;1.50;;
19219;SDS011;9744;49.364;7.484;2023-06-26T12:12:44;6.03;;;1.10;;
19219;SDS011;9744;49.364;7.484;2023-06-26T12:15:13;4.90;;;1.77;;
19219;SDS011;9744;49.364;7.484;2023-06-26T12:17:42;5.07;;;1.38;;
19219;SDS011;9744;49.364;7.484;2023-06-26T12:20:20;5.45;;;1.30;;
19219;SDS011;9744;49.364;7.484;2023-06-26T12:22:48;6.43;;;1.13;;
19219;SDS011;9744;49.364;7.484;2023-06-26T12:25:20;3.15;;;1.15;;
19219;SDS011;9744;49.364;7.484;2023-06-26T12:27:49;8.23;;;1.42;;
19219;SDS011;9744;49.364;7.484;2023-06-26T12:30:17;6.05;;;1.38;;
19219;SDS011;9744;49.364;7.484;2023-06-26T12:32:44;6.85;;;1.35;;
19219;SDS011;9744;49.364;7.484;2023-06-26T12:35:12;5.25;;;1.30;;
19219;SDS011;9744;49.364;7.484;2023-06-26T12:37:41;4.22;;;1.50;;
19219;SDS011;9744;49.364;7.484;2023-06-26T12:40:18;6.32;;;1.50;;
19219;SDS011;9744;49.364;7.484;2023-06-26T12:42:48;7.50;;;1.33;;
19219;SDS011;9744;49.364;7.484;2023-06-26T12:45:15;6.60;;;1.50;;
19219;SDS011;9744;49.364;7.484;2023-06-26T12:47:43;2.70;;;1.23;;
19219;SDS011;9744;49.364;7.484;2023-06-26T12:50:11;3.17;;;1.30;;
19219;SDS011;9744;49.364;7.484;2023-06-26T12:52:39;6.07;;;1.38;;
19219;SDS011;9744;49.364;7.484;2023-06-26T12:55:07;5.15;;;1.13;;
19219;SDS011;9744;49.364;7.484;2023-06-26T12:57:36;6.22;;;1.20;;
19219;SDS011;9744;49.364;7.484;2023-06-26T13:00:04;8.07;;;1.20;;
19219;SDS011;9744;49.364;7.484;2023-06-26T13:02:41;4.03;;;1.02;;
19219;SDS011;9744;49.364;7.484;2023-06-26T13:05:10;3.28;;;0.80;;
19219;SDS011;9744;49.364;7.484;2023-06-26T13:07:37;5.22;;;1.20;;
19219;SDS011;9744;49.364;7.484;2023-06-26T13:10:05;7.32;;;1.30;;
19219;SDS011;9744;49.364;7.484;2023-06-26T13:12:33;5.85;;;0.85;;
19219;SDS011;9744;49.364;7.484;2023-06-26T13:15:02;4.43;;;1.35;;
19219;SDS011;9744;49.364;7.484;2023-06-26T13:17:31;6.38;;;0.93;;
19219;SDS011;9744;49.364;7.484;2023-06-26T13:19:58;5.60;;;1.30;;
19219;SDS011;9744;49.364;7.484;2023-06-26T13:22:25;4.78;;;1.33;;
19219;SDS011;9744;49.364;7.484;2023-06-26T13:24:53;4.93;;;1.10;;
19219;SDS011;9744;49.364;7.484;2023-06-26T13:27:21;3.95;;;1.02;;
19219;SDS011;9744;49.364;7.484;2023-06-26T13:29:52;4.40;;;1.42;;
19219;SDS011;9744;49.364;7.484;2023-06-26T13:32:21;3.67;;;0.93;;
19219;SDS011;9744;49.364;7.484;2023-06-26T13:34:48;2.58;;;0.95;;
19219;SDS011;9744;49.364;7.484;2023-06-26T13:37:15;3.15;;;0.85;;
19219;SDS011;9744;49.364;7.484;2023-06-26T13:39:43;1.90;;;0.65;;
19219;SDS011;9744;49.364;7.484;2023-06-26T13:42:14;5.57;;;0.85;;
19219;SDS011;9744;49.364;7.484;2023-06-26T13:44:42;4.82;;;1.20;;
19219;SDS011;9744;49.364;7.484;2023-06-26T13:47:12;2.45;;;0.93;;
19219;SDS011;9744;49.364;7.484;2023-06-26T13:49:42;2.63;;;0.77;;
19219;SDS011;9744;49.364;7.484;2023-06-26T13:52:12;2.78;;;0.90;;
19219;SDS011;9744;49.364;7.484;2023-06-26T13:54:40;2.88;;;0.82;;
19219;SDS011;9744;49.364;7.484;2023-06-26T13:57:07;2.95;;;0.93;;
19219;SDS011;9744;49.364;7.484;2023-06-26T13:59:36;6.47;;;1.48;;
19219;SDS011;9744;49.364;7.484;2023-06-26T14:02:05;2.58;;;0.70;;
19219;SDS011;9744;49.364;7.484;2023-06-26T14:04:44;3.55;;;0.73;;
19219;SDS011;9744;49.364;7.484;2023-06-26T14:07:11;4.95;;;0.70;;
19219;SDS011;9744;49.364;7.484;2023-06-26T14:09:43;4.55;;;0.80;;
19219;SDS011;9744;49.364;7.484;2023-06-26T14:12:13;5.78;;;0.70;;
19219;SDS011;9744;49.364;7.484;2023-06-26T14:14:40;1.83;;;1.00;;
19219;SDS011;9744;49.364;7.484;2023-06-26T14:17:10;3.22;;;0.80;;
19219;SDS011;9744;49.364;7.484;2023-06-26T14:19:41;2.80;;;0.50;;
19219;SDS011;9744;49.364;7.484;2023-06-26T14:22:11;3.10;;;0.70;;
19219;SDS011;9744;49.364;7.484;2023-06-26T14:24:38;2.95;;;0.80;;
19219;SDS011;9744;49.364;7.484;2023-06-26T14:27:05;4.20;;;0.82;;
19219;SDS011;9744;49.364;7.484;2023-06-26T14:29:33;1.90;;;0.73;;
19219;SDS011;9744;49.364;7.484;2023-06-26T14:32:00;4.47;;;0.73;;
19219;SDS011;9744;49.364;7.484;2023-06-26T14:34:28;2.60;;;0.65;;
19219;SDS011;9744;49.364;7.484;2023-06-26T14:36:57;4.85;;;0.80;;
19219;SDS011;9744;49.364;7.484;2023-06-26T14:39:25;3.30;;;0.85;;
19219;SDS011;9744;49.364;7.484;2023-06-26T14:41:52;3.47;;;1.00;;
19219;SDS011;9744;49.364;7.484;2023-06-26T14:44:20;1.42;;;0.80;;
19219;SDS011;9744;49.364;7.484;2023-06-26T14:46:47;4.18;;;0.90;;
19219;SDS011;9744;49.364;7.484;2023-06-26T14:49:16;3.80;;;0.82;;
19219;SDS011;9744;49.364;7.484;2023-06-26T14:51:44;2.50;;;0.90;;
19219;SDS011;9744;49.364;7.484;2023-06-26T14:54:13;3.22;;;0.75;;
19219;SDS011;9744;49.364;7.484;2023-06-26T14:56:41;2.65;;;0.80;;
19219;SDS011;9744;49.364;7.484;2023-06-26T14:59:11;3.35;;;0.80;;
19219;SDS011;9744;49.364;7.484;2023-06-26T15:01:39;6.72;;;0.90;;
19219;SDS011;9744;49.364;7.484;2023-06-26T15:04:06;6.85;;;1.00;;
19219;SDS011;9744;49.364;7.484;2023-06-26T15:06:35;3.42;;;1.90;;
19219;SDS011;9744;49.364;7.484;2023-06-26T15:09:03;6.72;;;1.17;;
19219;SDS011;9744;49.364;7.484;2023-06-26T15:11:32;6.65;;;1.17;;
19219;SDS011;9744;49.364;7.484;2023-06-26T15:13:59;4.00;;;1.35;;
19219;SDS011;9744;49.364;7.484;2023-06-26T15:16:27;5.93;;;1.00;;
19219;SDS011;9744;49.364;7.484;2023-06-26T15:18:54;6.10;;;1.10;;
19219;SDS011;9744;49.364;7.484;2023-06-26T15:21:22;7.03;;;1.38;;
19219;SDS011;9744;49.364;7.484;2023-06-26T15:23:49;4.07;;;0.90;;
19219;SDS011;9744;49.364;7.484;2023-06-26T15:26:17;5.22;;;1.00;;
19219;SDS011;9744;49.364;7.484;2023-06-26T15:28:46;2.17;;;0.77;;